sensor_id;sensor_type;location;lat;lon;timestamp;P1;durP1;ratioP1;P2;durP2;ratioP2
75550;SDS011;64135;53.130;17.972;2022-10-16T00:00:41;25.30;;;16.10;;
75550;SDS011;64135;53.130;17.972;2022-10-16T00:03:27;26.90;;;17.30;;
75550;SDS011;64135;53.130;17.972;2022-10-16T00:05:54;23.90;;;15.80;;
75550;SDS011;64135;53.130;17.972;2022-10-16T00:08:25;32.90;;;19.90;;
75550;SDS011;64135;53.130;17.972;2022-10-16T00:10:52;25.40;;;17.20;;
75550;SDS011;64135;53.130;17.972;2022-10-16T00:13:18;23.10;;;13.80;;
75550;SDS011;64135;53.130;17.972;2022-10-16T00:15:46;22.70;;;14.50;;
75550;SDS011;64135;53.130;17.972;2022-10-16T00:18:13;28.20;;;17.30;;
75550;SDS011;64135;53.130;17.972;2022-10-16T00:20:40;26.20;;;16.60;;
75550;SDS011;64135;53.130;17.972;2022-10-16T00:23:07;29.40;;;17.30;;
75550;SDS011;64135;53.130;17.972;2022-10-16T00:25:34;25.10;;;15.50;;
75550;SDS011;64135;53.130;17.972;2022-10-16T00:28:01;21.80;;;14.20;;
75550;SDS011;64135;53.130;17.972;2022-10-16T00:30:27;25.50;;;17.10;;
75550;SDS011;64135;53.130;17.972;2022-10-16T00:32:55;21.40;;;14.20;;
75550;SDS011;64135;53.130;17.972;2022-10-16T00:35:22;26.30;;;16.00;;
75550;SDS011;64135;53.130;17.972;2022-10-16T00:37:48;24.10;;;15.90;;
75550;SDS011;64135;53.130;17.972;2022-10-16T00:40:15;23.70;;;13.40;;
75550;SDS011;64135;53.130;17.972;2022-10-16T00:42:42;24.60;;;15.40;;
75550;SDS011;64135;53.130;17.972;2022-10-16T00:45:08;24.40;;;14.40;;
75550;SDS011;64135;53.130;17.972;2022-10-16T00:47:43;24.00;;;15.60;;
75550;SDS011;64135;53.130;17.972;2022-10-16T00:50:19;23.30;;;15.00;;
75550;SDS011;64135;53.130;17.972;2022-10-16T00:55:16;20.60;;;13.40;;
75550;SDS011;64135;53.130;17.972;2022-10-16T00:57:43;24.50;;;15.10;;
75550;SDS011;64135;53.130;17.972;2022-10-16T01:00:12;17.00;;;10.20;;
75550;SDS011;64135;53.130;17.972;2022-10-16T01:02:41;27.40;;;16.40;;
75550;SDS011;64135;53.130;17.972;2022-10-16T01:05:08;29.30;;;19.00;;
75550;SDS011;64135;53.130;17.972;2022-10-16T01:07:52;22.50;;;13.00;;
75550;SDS011;64135;53.130;17.972;2022-10-16T01:10:40;27.00;;;17.40;;
75550;SDS011;64135;53.130;17.972;2022-10-16T01:13:29;21.60;;;12.40;;
75550;SDS011;64135;53.130;17.972;2022-10-16T01:16:07;28.20;;;17.20;;
75550;SDS011;64135;53.130;17.972;2022-10-16T01:18:51;27.80;;;16.60;;
75550;SDS011;64135;53.130;17.972;2022-10-16T01:27:09;26.60;;;15.90;;
75550;SDS011;64135;53.130;17.972;2022-10-16T01:29:52;30.70;;;19.20;;
75550;SDS011;64135;53.130;17.972;2022-10-16T01:34:59;21.50;;;13.50;;
75550;SDS011;64135;53.130;17.972;2022-10-16T01:37:32;22.20;;;14.60;;
75550;SDS011;64135;53.130;17.972;2022-10-16T01:40:05;26.80;;;16.90;;
75550;SDS011;64135;53.130;17.972;2022-10-16T01:42:45;23.80;;;14.80;;
75550;SDS011;64135;53.130;17.972;2022-10-16T01:45:14;24.70;;;14.70;;
75550;SDS011;64135;53.130;17.972;2022-10-16T01:47:44;25.70;;;15.70;;
75550;SDS011;64135;53.130;17.972;2022-10-16T01:50:12;29.10;;;17.60;;
75550;SDS011;64135;53.130;17.972;2022-10-16T01:52:41;27.90;;;15.80;;
75550;SDS011;64135;53.130;17.972;2022-10-16T01:55:10;23.40;;;13.70;;
75550;SDS011;64135;53.130;17.972;2022-10-16T01:57:41;16.20;;;10.30;;
75550;SDS011;64135;53.130;17.972;2022-10-16T02:00:11;27.20;;;18.00;;
75550;SDS011;64135;53.130;17.972;2022-10-16T02:02:40;19.10;;;12.80;;
75550;SDS011;64135;53.130;17.972;2022-10-16T02:05:27;23.30;;;14.40;;
75550;SDS011;64135;53.130;17.972;2022-10-16T02:07:55;17.30;;;9.70;;
75550;SDS011;64135;53.130;17.972;2022-10-16T02:10:22;23.40;;;15.30;;
75550;SDS011;64135;53.130;17.972;2022-10-16T02:12:55;18.00;;;11.10;;
75550;SDS011;64135;53.130;17.972;2022-10-16T02:15:25;25.10;;;16.10;;
75550;SDS011;64135;53.130;17.972;2022-10-16T02:17:51;23.20;;;15.60;;
75550;SDS011;64135;53.130;17.972;2022-10-16T02:20:19;22.00;;;14.30;;
75550;SDS011;64135;53.130;17.972;2022-10-16T02:22:48;25.60;;;15.20;;
75550;SDS011;64135;53.130;17.972;2022-10-16T02:28:04;23.30;;;14.60;;
75550;SDS011;64135;53.130;17.972;2022-10-16T02:30:34;24.30;;;15.80;;
75550;SDS011;64135;53.130;17.972;2022-10-16T02:33:06;21.70;;;13.40;;
75550;SDS011;64135;53.130;17.972;2022-10-16T02:35:35;21.10;;;14.40;;
75550;SDS011;64135;53.130;17.972;2022-10-16T02:38:02;19.70;;;12.80;;
75550;SDS011;64135;53.130;17.972;2022-10-16T02:40:29;19.00;;;12.40;;
75550;SDS011;64135;53.130;17.972;2022-10-16T02:42:55;24.80;;;14.50;;
75550;SDS011;64135;53.130;17.972;2022-10-16T02:45:24;26.30;;;16.50;;
75550;SDS011;64135;53.130;17.972;2022-10-16T02:47:51;24.40;;;13.70;;
75550;SDS011;64135;53.130;17.972;2022-10-16T02:50:17;21.90;;;14.90;;
75550;SDS011;64135;53.130;17.972;2022-10-16T02:52:44;21.90;;;13.90;;
75550;SDS011;64135;53.130;17.972;2022-10-16T02:55:10;23.80;;;14.20;;
75550;SDS011;64135;53.130;17.972;2022-10-16T02:57:37;21.50;;;12.80;;
75550;SDS011;64135;53.130;17.972;2022-10-16T03:00:04;24.40;;;15.20;;
75550;SDS011;64135;53.130;17.972;2022-10-16T03:02:32;22.40;;;13.80;;
75550;SDS011;64135;53.130;17.972;2022-10-16T03:04:58;25.70;;;14.70;;
75550;SDS011;64135;53.130;17.972;2022-10-16T03:07:25;22.80;;;14.50;;
75550;SDS011;64135;53.130;17.972;2022-10-16T03:09:51;23.90;;;15.40;;
75550;SDS011;64135;53.130;17.972;2022-10-16T03:12:18;22.40;;;14.00;;
75550;SDS011;64135;53.130;17.972;2022-10-16T03:14:44;22.10;;;12.90;;
75550;SDS011;64135;53.130;17.972;2022-10-16T03:17:11;18.10;;;11.40;;
75550;SDS011;64135;53.130;17.972;2022-10-16T03:19:39;19.90;;;12.80;;
75550;SDS011;64135;53.130;17.972;2022-10-16T03:22:05;19.30;;;12.20;;
75550;SDS011;64135;53.130;17.972;2022-10-16T03:24:32;25.00;;;15.40;;
75550;SDS011;64135;53.130;17.972;2022-10-16T03:26:58;24.50;;;15.20;;
75550;SDS011;64135;53.130;17.972;2022-10-16T03:29:25;24.80;;;15.10;;
75550;SDS011;64135;53.130;17.972;2022-10-16T03:31:52;22.00;;;14.40;;
75550;SDS011;64135;53.130;17.972;2022-10-16T03:34:18;23.90;;;14.20;;
75550;SDS011;64135;53.130;17.972;2022-10-16T03:36:45;18.10;;;11.40;;
75550;SDS011;64135;53.130;17.972;2022-10-16T03:39:11;21.20;;;13.80;;
75550;SDS011;64135;53.130;17.972;2022-10-16T03:41:37;21.00;;;13.20;;
75550;SDS011;64135;53.130;17.972;2022-10-16T03:44:04;24.70;;;16.40;;
75550;SDS011;64135;53.130;17.972;2022-10-16T03:46:31;19.60;;;11.90;;
75550;SDS011;64135;53.130;17.972;2022-10-16T03:48:57;24.00;;;14.70;;
75550;SDS011;64135;53.130;17.972;2022-10-16T03:51:24;19.80;;;12.00;;
75550;SDS011;64135;53.130;17.972;2022-10-16T03:53:50;18.40;;;12.00;;
75550;SDS011;64135;53.130;17.972;2022-10-16T03:56:17;23.90;;;15.60;;
75550;SDS011;64135;53.130;17.972;2022-10-16T03:58:43;25.20;;;14.90;;
75550;SDS011;64135;53.130;17.972;2022-10-16T04:01:10;19.80;;;13.40;;
75550;SDS011;64135;53.130;17.972;2022-10-16T04:03:36;25.00;;;15.40;;
75550;SDS011;64135;53.130;17.972;2022-10-16T04:06:03;21.00;;;13.30;;
75550;SDS011;64135;53.130;17.972;2022-10-16T04:08:29;24.30;;;14.50;;
75550;SDS011;64135;53.130;17.972;2022-10-16T04:10:56;23.10;;;15.40;;
75550;SDS011;64135;53.130;17.972;2022-10-16T04:13:22;18.30;;;11.70;;
75550;SDS011;64135;53.130;17.972;2022-10-16T04:15:49;16.70;;;11.40;;
75550;SDS011;64135;53.130;17.972;2022-10-16T04:18:15;21.70;;;13.80;;
75550;SDS011;64135;53.130;17.972;2022-10-16T04:20:41;19.60;;;12.40;;
75550;SDS011;64135;53.130;17.972;2022-10-16T04:23:08;18.80;;;12.40;;
75550;SDS011;64135;53.130;17.972;2022-10-16T04:25:34;18.90;;;12.20;;
75550;SDS011;64135;53.130;17.972;2022-10-16T04:28:01;18.80;;;12.20;;
75550;SDS011;64135;53.130;17.972;2022-10-16T04:30:28;21.50;;;13.00;;
75550;SDS011;64135;53.130;17.972;2022-10-16T04:32:54;17.80;;;11.90;;
75550;SDS011;64135;53.130;17.972;2022-10-16T04:35:21;20.00;;;13.40;;
75550;SDS011;64135;53.130;17.972;2022-10-16T04:37:48;18.00;;;12.70;;
75550;SDS011;64135;53.130;17.972;2022-10-16T04:40:15;20.50;;;13.30;;
75550;SDS011;64135;53.130;17.972;2022-10-16T04:42:41;15.80;;;10.80;;
75550;SDS011;64135;53.130;17.972;2022-10-16T04:45:08;19.90;;;12.20;;
75550;SDS011;64135;53.130;17.972;2022-10-16T04:47:35;21.60;;;13.50;;
75550;SDS011;64135;53.130;17.972;2022-10-16T04:50:01;19.90;;;12.70;;
75550;SDS011;64135;53.130;17.972;2022-10-16T04:52:28;20.60;;;13.50;;
75550;SDS011;64135;53.130;17.972;2022-10-16T04:54:55;18.50;;;11.10;;
75550;SDS011;64135;53.130;17.972;2022-10-16T04:57:22;21.00;;;12.50;;
75550;SDS011;64135;53.130;17.972;2022-10-16T04:59:49;22.70;;;14.30;;
75550;SDS011;64135;53.130;17.972;2022-10-16T05:02:15;17.90;;;11.80;;
75550;SDS011;64135;53.130;17.972;2022-10-16T05:04:41;19.30;;;11.80;;
75550;SDS011;64135;53.130;17.972;2022-10-16T05:07:08;21.50;;;14.60;;
75550;SDS011;64135;53.130;17.972;2022-10-16T05:09:34;21.80;;;13.40;;
75550;SDS011;64135;53.130;17.972;2022-10-16T05:12:01;18.70;;;12.50;;
75550;SDS011;64135;53.130;17.972;2022-10-16T05:14:29;18.10;;;11.80;;
75550;SDS011;64135;53.130;17.972;2022-10-16T05:16:56;17.60;;;11.20;;
75550;SDS011;64135;53.130;17.972;2022-10-16T05:19:23;14.30;;;9.10;;
75550;SDS011;64135;53.130;17.972;2022-10-16T05:21:49;16.50;;;10.80;;
75550;SDS011;64135;53.130;17.972;2022-10-16T05:24:16;16.60;;;11.50;;
75550;SDS011;64135;53.130;17.972;2022-10-16T05:26:42;19.30;;;13.20;;
75550;SDS011;64135;53.130;17.972;2022-10-16T05:29:09;15.70;;;11.40;;
75550;SDS011;64135;53.130;17.972;2022-10-16T05:31:35;18.70;;;12.50;;
75550;SDS011;64135;53.130;17.972;2022-10-16T05:34:01;14.90;;;10.50;;
75550;SDS011;64135;53.130;17.972;2022-10-16T05:36:28;15.70;;;9.70;;
75550;SDS011;64135;53.130;17.972;2022-10-16T05:38:55;13.70;;;10.00;;
75550;SDS011;64135;53.130;17.972;2022-10-16T05:41:21;17.40;;;11.50;;
75550;SDS011;64135;53.130;17.972;2022-10-16T05:43:49;11.50;;;7.80;;
75550;SDS011;64135;53.130;17.972;2022-10-16T05:46:16;20.80;;;12.30;;
75550;SDS011;64135;53.130;17.972;2022-10-16T05:48:43;15.80;;;11.20;;
75550;SDS011;64135;53.130;17.972;2022-10-16T05:51:10;18.60;;;12.90;;
75550;SDS011;64135;53.130;17.972;2022-10-16T05:53:38;20.70;;;13.60;;
75550;SDS011;64135;53.130;17.972;2022-10-16T05:56:06;16.10;;;11.00;;
75550;SDS011;64135;53.130;17.972;2022-10-16T05:58:34;17.50;;;12.00;;
75550;SDS011;64135;53.130;17.972;2022-10-16T06:01:03;14.80;;;10.50;;
75550;SDS011;64135;53.130;17.972;2022-10-16T06:03:31;15.90;;;10.90;;
75550;SDS011;64135;53.130;17.972;2022-10-16T06:05:58;12.60;;;9.20;;
75550;SDS011;64135;53.130;17.972;2022-10-16T06:08:24;13.90;;;10.50;;
75550;SDS011;64135;53.130;17.972;2022-10-16T06:11:01;16.30;;;10.60;;
75550;SDS011;64135;53.130;17.972;2022-10-16T06:13:29;15.00;;;9.90;;
75550;SDS011;64135;53.130;17.972;2022-10-16T06:15:57;16.30;;;10.30;;
75550;SDS011;64135;53.130;17.972;2022-10-16T06:18:25;14.70;;;10.70;;
75550;SDS011;64135;53.130;17.972;2022-10-16T06:20:53;13.70;;;9.70;;
75550;SDS011;64135;53.130;17.972;2022-10-16T06:23:20;15.40;;;10.50;;
75550;SDS011;64135;53.130;17.972;2022-10-16T06:25:46;14.10;;;10.30;;
75550;SDS011;64135;53.130;17.972;2022-10-16T06:28:13;13.20;;;8.70;;
75550;SDS011;64135;53.130;17.972;2022-10-16T06:30:40;16.30;;;11.50;;
75550;SDS011;64135;53.130;17.972;2022-10-16T06:33:09;13.20;;;9.50;;
75550;SDS011;64135;53.130;17.972;2022-10-16T06:35:36;10.50;;;7.20;;
75550;SDS011;64135;53.130;17.972;2022-10-16T06:38:03;14.30;;;9.40;;
75550;SDS011;64135;53.130;17.972;2022-10-16T06:40:29;12.30;;;8.80;;
75550;SDS011;64135;53.130;17.972;2022-10-16T06:42:56;10.50;;;7.50;;
75550;SDS011;64135;53.130;17.972;2022-10-16T06:45:23;11.40;;;7.90;;
75550;SDS011;64135;53.130;17.972;2022-10-16T06:47:49;11.60;;;8.10;;
75550;SDS011;64135;53.130;17.972;2022-10-16T06:50:16;13.40;;;9.20;;
75550;SDS011;64135;53.130;17.972;2022-10-16T06:52:42;16.30;;;11.50;;
75550;SDS011;64135;53.130;17.972;2022-10-16T06:55:08;17.60;;;10.30;;
75550;SDS011;64135;53.130;17.972;2022-10-16T06:57:35;12.30;;;8.80;;
75550;SDS011;64135;53.130;17.972;2022-10-16T07:00:02;12.70;;;8.90;;
75550;SDS011;64135;53.130;17.972;2022-10-16T07:02:29;13.40;;;9.40;;
75550;SDS011;64135;53.130;17.972;2022-10-16T07:04:56;15.90;;;9.70;;
75550;SDS011;64135;53.130;17.972;2022-10-16T07:07:23;11.50;;;8.60;;
75550;SDS011;64135;53.130;17.972;2022-10-16T07:09:52;10.00;;;7.60;;
75550;SDS011;64135;53.130;17.972;2022-10-16T07:12:19;10.90;;;6.60;;
75550;SDS011;64135;53.130;17.972;2022-10-16T07:14:46;11.30;;;8.70;;
75550;SDS011;64135;53.130;17.972;2022-10-16T07:17:12;10.50;;;8.00;;
75550;SDS011;64135;53.130;17.972;2022-10-16T07:19:38;12.10;;;8.90;;
75550;SDS011;64135;53.130;17.972;2022-10-16T07:22:05;10.40;;;7.60;;
75550;SDS011;64135;53.130;17.972;2022-10-16T07:24:32;9.30;;;7.20;;
75550;SDS011;64135;53.130;17.972;2022-10-16T07:26:59;11.10;;;8.20;;
75550;SDS011;64135;53.130;17.972;2022-10-16T07:29:25;11.20;;;8.90;;
75550;SDS011;64135;53.130;17.972;2022-10-16T07:31:52;11.80;;;8.30;;
75550;SDS011;64135;53.130;17.972;2022-10-16T07:34:19;11.90;;;8.00;;
75550;SDS011;64135;53.130;17.972;2022-10-16T07:36:48;8.40;;;6.10;;
75550;SDS011;64135;53.130;17.972;2022-10-16T07:39:16;8.70;;;7.00;;
75550;SDS011;64135;53.130;17.972;2022-10-16T07:41:43;7.70;;;6.50;;
75550;SDS011;64135;53.130;17.972;2022-10-16T07:44:09;7.30;;;6.20;;
75550;SDS011;64135;53.130;17.972;2022-10-16T07:46:36;6.60;;;5.80;;
75550;SDS011;64135;53.130;17.972;2022-10-16T07:49:03;9.10;;;6.30;;
75550;SDS011;64135;53.130;17.972;2022-10-16T07:51:30;7.20;;;5.80;;
75550;SDS011;64135;53.130;17.972;2022-10-16T07:53:56;7.70;;;6.30;;
75550;SDS011;64135;53.130;17.972;2022-10-16T07:56:23;8.70;;;7.50;;
75550;SDS011;64135;53.130;17.972;2022-10-16T07:58:50;6.30;;;5.60;;
75550;SDS011;64135;53.130;17.972;2022-10-16T08:01:17;6.50;;;5.40;;
75550;SDS011;64135;53.130;17.972;2022-10-16T08:03:44;7.90;;;6.30;;
75550;SDS011;64135;53.130;17.972;2022-10-16T08:06:12;6.50;;;5.70;;
75550;SDS011;64135;53.130;17.972;2022-10-16T08:08:38;7.30;;;6.00;;
75550;SDS011;64135;53.130;17.972;2022-10-16T08:11:05;7.00;;;6.00;;
75550;SDS011;64135;53.130;17.972;2022-10-16T08:13:31;6.80;;;6.10;;
75550;SDS011;64135;53.130;17.972;2022-10-16T08:15:58;7.00;;;6.10;;
75550;SDS011;64135;53.130;17.972;2022-10-16T08:18:24;8.30;;;6.70;;
75550;SDS011;64135;53.130;17.972;2022-10-16T08:20:58;7.10;;;6.20;;
75550;SDS011;64135;53.130;17.972;2022-10-16T08:23:26;7.80;;;5.50;;
75550;SDS011;64135;53.130;17.972;2022-10-16T08:25:54;6.80;;;5.10;;
75550;SDS011;64135;53.130;17.972;2022-10-16T08:28:21;6.40;;;5.50;;
75550;SDS011;64135;53.130;17.972;2022-10-16T08:30:48;7.20;;;5.70;;
75550;SDS011;64135;53.130;17.972;2022-10-16T08:33:15;6.60;;;5.00;;
75550;SDS011;64135;53.130;17.972;2022-10-16T08:35:41;6.90;;;5.90;;
75550;SDS011;64135;53.130;17.972;2022-10-16T08:38:08;8.80;;;5.90;;
75550;SDS011;64135;53.130;17.972;2022-10-16T08:40:36;5.40;;;4.80;;
75550;SDS011;64135;53.130;17.972;2022-10-16T08:43:12;6.10;;;5.20;;
75550;SDS011;64135;53.130;17.972;2022-10-16T08:48:27;6.30;;;5.60;;
75550;SDS011;64135;53.130;17.972;2022-10-16T08:50:56;5.90;;;5.20;;
75550;SDS011;64135;53.130;17.972;2022-10-16T08:53:26;5.80;;;5.10;;
75550;SDS011;64135;53.130;17.972;2022-10-16T08:55:57;6.50;;;5.40;;
75550;SDS011;64135;53.130;17.972;2022-10-16T08:58:28;5.40;;;4.90;;
75550;SDS011;64135;53.130;17.972;2022-10-16T09:00:57;6.80;;;4.60;;
75550;SDS011;64135;53.130;17.972;2022-10-16T09:06:19;6.30;;;5.10;;
75550;SDS011;64135;53.130;17.972;2022-10-16T09:12:03;5.10;;;4.40;;
75550;SDS011;64135;53.130;17.972;2022-10-16T09:17:39;8.00;;;4.50;;
75550;SDS011;64135;53.130;17.972;2022-10-16T09:20:18;4.90;;;4.40;;
75550;SDS011;64135;53.130;17.972;2022-10-16T09:22:48;5.80;;;5.20;;
75550;SDS011;64135;53.130;17.972;2022-10-16T09:25:36;4.90;;;3.90;;
75550;SDS011;64135;53.130;17.972;2022-10-16T09:28:05;5.40;;;4.10;;
75550;SDS011;64135;53.130;17.972;2022-10-16T09:30:32;6.80;;;4.80;;
75550;SDS011;64135;53.130;17.972;2022-10-16T09:32:58;6.40;;;4.80;;
75550;SDS011;64135;53.130;17.972;2022-10-16T09:35:38;4.50;;;3.70;;
75550;SDS011;64135;53.130;17.972;2022-10-16T09:38:07;6.80;;;4.50;;
75550;SDS011;64135;53.130;17.972;2022-10-16T09:40:35;3.90;;;3.50;;
75550;SDS011;64135;53.130;17.972;2022-10-16T09:45:36;6.00;;;4.10;;
75550;SDS011;64135;53.130;17.972;2022-10-16T09:48:12;5.20;;;4.10;;
75550;SDS011;64135;53.130;17.972;2022-10-16T09:50:39;5.50;;;4.70;;
75550;SDS011;64135;53.130;17.972;2022-10-16T09:53:10;6.70;;;4.50;;
75550;SDS011;64135;53.130;17.972;2022-10-16T09:55:47;6.80;;;4.80;;
75550;SDS011;64135;53.130;17.972;2022-10-16T09:58:15;5.00;;;3.50;;
75550;SDS011;64135;53.130;17.972;2022-10-16T10:00:48;5.20;;;4.20;;
75550;SDS011;64135;53.130;17.972;2022-10-16T10:03:24;4.30;;;3.60;;
75550;SDS011;64135;53.130;17.972;2022-10-16T10:06:00;4.70;;;4.20;;
75550;SDS011;64135;53.130;17.972;2022-10-16T10:08:30;4.70;;;3.70;;
75550;SDS011;64135;53.130;17.972;2022-10-16T10:10:56;4.00;;;3.50;;
75550;SDS011;64135;53.130;17.972;2022-10-16T10:13:24;3.80;;;3.10;;
75550;SDS011;64135;53.130;17.972;2022-10-16T10:15:50;4.40;;;3.60;;
75550;SDS011;64135;53.130;17.972;2022-10-16T10:18:18;3.50;;;3.00;;
75550;SDS011;64135;53.130;17.972;2022-10-16T10:20:46;3.90;;;3.50;;
75550;SDS011;64135;53.130;17.972;2022-10-16T10:23:24;3.80;;;2.90;;
75550;SDS011;64135;53.130;17.972;2022-10-16T10:25:54;3.50;;;3.20;;
75550;SDS011;64135;53.130;17.972;2022-10-16T10:34:04;4.10;;;3.20;;
75550;SDS011;64135;53.130;17.972;2022-10-16T10:37:07;3.60;;;3.30;;
75550;SDS011;64135;53.130;17.972;2022-10-16T10:39:52;3.80;;;3.40;;
75550;SDS011;64135;53.130;17.972;2022-10-16T10:44:57;3.60;;;3.20;;
75550;SDS011;64135;53.130;17.972;2022-10-16T10:50:24;4.40;;;3.30;;
75550;SDS011;64135;53.130;17.972;2022-10-16T10:55:37;3.90;;;3.10;;
75550;SDS011;64135;53.130;17.972;2022-10-16T10:58:26;3.50;;;2.80;;
75550;SDS011;64135;53.130;17.972;2022-10-16T11:01:08;3.50;;;3.20;;
75550;SDS011;64135;53.130;17.972;2022-10-16T11:06:25;3.40;;;3.10;;
75550;SDS011;64135;53.130;17.972;2022-10-16T11:09:02;3.50;;;3.00;;
75550;SDS011;64135;53.130;17.972;2022-10-16T11:14:49;3.60;;;3.20;;
75550;SDS011;64135;53.130;17.972;2022-10-16T11:19:54;4.40;;;3.80;;
75550;SDS011;64135;53.130;17.972;2022-10-16T11:22:34;4.90;;;3.20;;
75550;SDS011;64135;53.130;17.972;2022-10-16T11:25:18;3.20;;;2.80;;
75550;SDS011;64135;53.130;17.972;2022-10-16T11:28:07;3.20;;;2.80;;
75550;SDS011;64135;53.130;17.972;2022-10-16T11:30:45;3.40;;;3.10;;
75550;SDS011;64135;53.130;17.972;2022-10-16T11:33:19;4.80;;;3.00;;
75550;SDS011;64135;53.130;17.972;2022-10-16T11:35:57;3.80;;;3.20;;
75550;SDS011;64135;53.130;17.972;2022-10-16T11:38:37;3.10;;;2.70;;
75550;SDS011;64135;53.130;17.972;2022-10-16T11:41:12;4.20;;;3.00;;
75550;SDS011;64135;53.130;17.972;2022-10-16T11:49:52;3.60;;;3.30;;
75550;SDS011;64135;53.130;17.972;2022-10-16T11:52:39;3.40;;;2.90;;
75550;SDS011;64135;53.130;17.972;2022-10-16T11:55:27;3.90;;;3.00;;
75550;SDS011;64135;53.130;17.972;2022-10-16T11:58:00;4.90;;;2.80;;
75550;SDS011;64135;53.130;17.972;2022-10-16T12:00:40;4.60;;;3.70;;
75550;SDS011;64135;53.130;17.972;2022-10-16T12:08:41;4.50;;;3.10;;
75550;SDS011;64135;53.130;17.972;2022-10-16T12:17:03;3.30;;;3.00;;
75550;SDS011;64135;53.130;17.972;2022-10-16T12:22:26;4.30;;;3.50;;
75550;SDS011;64135;53.130;17.972;2022-10-16T12:24:54;5.50;;;3.70;;
75550;SDS011;64135;53.130;17.972;2022-10-16T12:27:32;4.00;;;3.40;;
75550;SDS011;64135;53.130;17.972;2022-10-16T12:30:00;3.80;;;2.70;;
75550;SDS011;64135;53.130;17.972;2022-10-16T12:32:32;4.30;;;3.00;;
75550;SDS011;64135;53.130;17.972;2022-10-16T12:35:00;5.20;;;3.70;;
75550;SDS011;64135;53.130;17.972;2022-10-16T12:37:31;3.60;;;3.00;;
75550;SDS011;64135;53.130;17.972;2022-10-16T12:39:59;3.90;;;3.20;;
75550;SDS011;64135;53.130;17.972;2022-10-16T12:42:41;4.00;;;3.60;;
75550;SDS011;64135;53.130;17.972;2022-10-16T12:47:53;3.90;;;3.00;;
75550;SDS011;64135;53.130;17.972;2022-10-16T12:50:25;4.30;;;3.60;;
75550;SDS011;64135;53.130;17.972;2022-10-16T12:52:53;4.40;;;3.60;;
75550;SDS011;64135;53.130;17.972;2022-10-16T12:55:21;4.20;;;3.70;;
75550;SDS011;64135;53.130;17.972;2022-10-16T13:06:19;5.40;;;3.40;;
75550;SDS011;64135;53.130;17.972;2022-10-16T13:09:18;3.40;;;2.90;;
75550;SDS011;64135;53.130;17.972;2022-10-16T13:20:12;5.00;;;3.00;;
75550;SDS011;64135;53.130;17.972;2022-10-16T13:23:13;3.50;;;2.70;;
75550;SDS011;64135;53.130;17.972;2022-10-16T13:25:55;6.20;;;3.60;;
75550;SDS011;64135;53.130;17.972;2022-10-16T13:28:27;4.20;;;3.00;;
75550;SDS011;64135;53.130;17.972;2022-10-16T13:30:56;3.50;;;2.90;;
75550;SDS011;64135;53.130;17.972;2022-10-16T13:35:55;3.40;;;3.00;;
75550;SDS011;64135;53.130;17.972;2022-10-16T13:38:23;3.70;;;3.10;;
75550;SDS011;64135;53.130;17.972;2022-10-16T13:40:54;5.70;;;3.10;;
75550;SDS011;64135;53.130;17.972;2022-10-16T13:43:44;4.60;;;3.50;;
75550;SDS011;64135;53.130;17.972;2022-10-16T13:46:13;4.30;;;3.60;;
75550;SDS011;64135;53.130;17.972;2022-10-16T13:48:44;4.40;;;3.10;;
75550;SDS011;64135;53.130;17.972;2022-10-16T13:51:23;3.30;;;3.00;;
75550;SDS011;64135;53.130;17.972;2022-10-16T13:53:49;3.10;;;2.80;;
75550;SDS011;64135;53.130;17.972;2022-10-16T13:56:17;3.80;;;3.50;;
75550;SDS011;64135;53.130;17.972;2022-10-16T13:58:45;4.70;;;3.80;;
75550;SDS011;64135;53.130;17.972;2022-10-16T14:03:43;4.10;;;3.20;;
75550;SDS011;64135;53.130;17.972;2022-10-16T14:06:11;3.40;;;3.10;;
75550;SDS011;64135;53.130;17.972;2022-10-16T14:08:42;3.50;;;3.20;;
75550;SDS011;64135;53.130;17.972;2022-10-16T14:11:10;2.90;;;2.60;;
75550;SDS011;64135;53.130;17.972;2022-10-16T14:13:43;3.50;;;3.00;;
75550;SDS011;64135;53.130;17.972;2022-10-16T14:16:15;4.00;;;3.40;;
75550;SDS011;64135;53.130;17.972;2022-10-16T14:18:45;4.90;;;3.70;;
75550;SDS011;64135;53.130;17.972;2022-10-16T14:21:15;5.60;;;3.30;;
75550;SDS011;64135;53.130;17.972;2022-10-16T14:23:43;4.80;;;3.20;;
75550;SDS011;64135;53.130;17.972;2022-10-16T14:28:36;3.50;;;3.20;;
75550;SDS011;64135;53.130;17.972;2022-10-16T14:31:17;4.20;;;3.30;;
75550;SDS011;64135;53.130;17.972;2022-10-16T14:33:52;3.90;;;3.40;;
75550;SDS011;64135;53.130;17.972;2022-10-16T14:36:19;5.10;;;3.40;;
75550;SDS011;64135;53.130;17.972;2022-10-16T14:39:34;3.70;;;3.20;;
75550;SDS011;64135;53.130;17.972;2022-10-16T14:41:45;4.70;;;3.30;;
75550;SDS011;64135;53.130;17.972;2022-10-16T14:44:13;4.20;;;3.30;;
75550;SDS011;64135;53.130;17.972;2022-10-16T14:46:40;4.00;;;3.50;;
75550;SDS011;64135;53.130;17.972;2022-10-16T14:51:38;4.70;;;3.40;;
75550;SDS011;64135;53.130;17.972;2022-10-16T14:54:08;3.80;;;3.40;;
75550;SDS011;64135;53.130;17.972;2022-10-16T14:56:56;6.20;;;3.90;;
75550;SDS011;64135;53.130;17.972;2022-10-16T15:02:00;4.00;;;3.60;;
75550;SDS011;64135;53.130;17.972;2022-10-16T15:04:35;4.40;;;3.60;;
75550;SDS011;64135;53.130;17.972;2022-10-16T15:07:01;3.90;;;3.20;;
75550;SDS011;64135;53.130;17.972;2022-10-16T15:09:28;4.70;;;3.40;;
75550;SDS011;64135;53.130;17.972;2022-10-16T15:11:54;4.20;;;3.20;;
75550;SDS011;64135;53.130;17.972;2022-10-16T15:14:21;5.00;;;3.40;;
75550;SDS011;64135;53.130;17.972;2022-10-16T15:16:48;3.60;;;3.30;;
75550;SDS011;64135;53.130;17.972;2022-10-16T15:19:15;6.00;;;3.50;;
75550;SDS011;64135;53.130;17.972;2022-10-16T15:21:41;5.70;;;3.80;;
75550;SDS011;64135;53.130;17.972;2022-10-16T15:24:11;5.80;;;3.70;;
75550;SDS011;64135;53.130;17.972;2022-10-16T15:26:38;4.80;;;3.50;;
75550;SDS011;64135;53.130;17.972;2022-10-16T15:29:05;4.60;;;3.20;;
75550;SDS011;64135;53.130;17.972;2022-10-16T15:31:32;5.20;;;3.50;;
75550;SDS011;64135;53.130;17.972;2022-10-16T15:33:59;4.30;;;3.50;;
75550;SDS011;64135;53.130;17.972;2022-10-16T15:36:31;5.30;;;3.40;;
75550;SDS011;64135;53.130;17.972;2022-10-16T15:39:11;3.90;;;2.90;;
75550;SDS011;64135;53.130;17.972;2022-10-16T15:41:39;6.00;;;3.50;;
75550;SDS011;64135;53.130;17.972;2022-10-16T15:44:06;7.60;;;3.60;;
75550;SDS011;64135;53.130;17.972;2022-10-16T15:46:32;6.50;;;3.10;;
75550;SDS011;64135;53.130;17.972;2022-10-16T15:49:00;5.30;;;3.20;;
75550;SDS011;64135;53.130;17.972;2022-10-16T15:51:26;6.20;;;3.30;;
75550;SDS011;64135;53.130;17.972;2022-10-16T15:53:55;3.50;;;3.20;;
75550;SDS011;64135;53.130;17.972;2022-10-16T15:56:23;6.10;;;3.20;;
75550;SDS011;64135;53.130;17.972;2022-10-16T15:58:51;5.90;;;3.40;;
75550;SDS011;64135;53.130;17.972;2022-10-16T16:01:20;4.20;;;3.10;;
75550;SDS011;64135;53.130;17.972;2022-10-16T16:03:47;4.70;;;3.40;;
75550;SDS011;64135;53.130;17.972;2022-10-16T16:06:14;11.30;;;5.70;;
75550;SDS011;64135;53.130;17.972;2022-10-16T16:08:41;4.40;;;3.60;;
75550;SDS011;64135;53.130;17.972;2022-10-16T16:11:11;7.70;;;7.00;;
75550;SDS011;64135;53.130;17.972;2022-10-16T16:13:39;7.70;;;4.30;;
75550;SDS011;64135;53.130;17.972;2022-10-16T16:16:07;12.00;;;9.00;;
75550;SDS011;64135;53.130;17.972;2022-10-16T16:18:37;12.30;;;8.60;;
75550;SDS011;64135;53.130;17.972;2022-10-16T16:21:05;14.00;;;6.60;;